sensor_id;sensor_type;location;lat;lon;timestamp;P1;durP1;ratioP1;P2;durP2;ratioP2
37777;SDS011;23615;51.506;7.678;2023-02-28T00:01:25;1.13;;;1.03;;
37777;SDS011;23615;51.506;7.678;2023-02-28T00:03:51;2.10;;;1.23;;
37777;SDS011;23615;51.506;7.678;2023-02-28T00:06:16;2.22;;;1.13;;
37777;SDS011;23615;51.506;7.678;2023-02-28T00:08:41;2.15;;;1.17;;
37777;SDS011;23615;51.506;7.678;2023-02-28T00:11:10;2.45;;;1.40;;
37777;SDS011;23615;51.506;7.678;2023-02-28T00:13:38;1.83;;;1.20;;
37777;SDS011;23615;51.506;7.678;2023-02-28T00:16:07;1.98;;;1.10;;
37777;SDS011;23615;51.506;7.678;2023-02-28T00:18:35;1.20;;;0.80;;
37777;SDS011;23615;51.506;7.678;2023-02-28T00:21:00;1.10;;;0.97;;
37777;SDS011;23615;51.506;7.678;2023-02-28T00:23:26;1.50;;;1.00;;
37777;SDS011;23615;51.506;7.678;2023-02-28T00:25:52;2.13;;;0.90;;
37777;SDS011;23615;51.506;7.678;2023-02-28T00:28:18;1.45;;;1.23;;
37777;SDS011;23615;51.506;7.678;2023-02-28T00:30:43;1.43;;;1.20;;
37777;SDS011;23615;51.506;7.678;2023-02-28T00:33:09;0.95;;;0.95;;
37777;SDS011;23615;51.506;7.678;2023-02-28T00:35:34;2.07;;;1.10;;
37777;SDS011;23615;51.506;7.678;2023-02-28T00:38:00;0.90;;;0.87;;
37777;SDS011;23615;51.506;7.678;2023-02-28T00:40:25;1.50;;;0.87;;
37777;SDS011;23615;51.506;7.678;2023-02-28T00:42:51;0.80;;;0.70;;
37777;SDS011;23615;51.506;7.678;2023-02-28T00:45:16;1.00;;;0.83;;
37777;SDS011;23615;51.506;7.678;2023-02-28T00:47:42;1.70;;;1.10;;
37777;SDS011;23615;51.506;7.678;2023-02-28T00:50:07;1.80;;;1.10;;
37777;SDS011;23615;51.506;7.678;2023-02-28T00:52:33;1.17;;;0.80;;
37777;SDS011;23615;51.506;7.678;2023-02-28T00:54:59;1.33;;;0.90;;
37777;SDS011;23615;51.506;7.678;2023-02-28T00:57:24;2.27;;;0.90;;
37777;SDS011;23615;51.506;7.678;2023-02-28T00:59:49;1.70;;;1.00;;
37777;SDS011;23615;51.506;7.678;2023-02-28T01:02:15;1.33;;;0.90;;
37777;SDS011;23615;51.506;7.678;2023-02-28T01:04:40;1.63;;;0.70;;
37777;SDS011;23615;51.506;7.678;2023-02-28T01:07:05;1.67;;;1.20;;
37777;SDS011;23615;51.506;7.678;2023-02-28T01:09:30;1.33;;;1.10;;
37777;SDS011;23615;51.506;7.678;2023-02-28T01:11:56;0.90;;;0.80;;
37777;SDS011;23615;51.506;7.678;2023-02-28T01:14:21;0.83;;;0.83;;
37777;SDS011;23615;51.506;7.678;2023-02-28T01:16:46;1.03;;;0.93;;
37777;SDS011;23615;51.506;7.678;2023-02-28T01:19:12;1.10;;;0.70;;
37777;SDS011;23615;51.506;7.678;2023-02-28T01:21:37;1.33;;;0.77;;
37777;SDS011;23615;51.506;7.678;2023-02-28T01:24:03;0.90;;;0.80;;
37777;SDS011;23615;51.506;7.678;2023-02-28T01:26:29;1.10;;;0.68;;
37777;SDS011;23615;51.506;7.678;2023-02-28T01:28:55;1.15;;;0.77;;
37777;SDS011;23615;51.506;7.678;2023-02-28T01:31:21;0.80;;;0.70;;
37777;SDS011;23615;51.506;7.678;2023-02-28T01:33:47;1.05;;;0.82;;
37777;SDS011;23615;51.506;7.678;2023-02-28T01:36:22;0.70;;;0.70;;
37777;SDS011;23615;51.506;7.678;2023-02-28T01:38:49;1.83;;;1.10;;
37777;SDS011;23615;51.506;7.678;2023-02-28T01:41:22;0.80;;;0.80;;
37777;SDS011;23615;51.506;7.678;2023-02-28T01:46:15;2.10;;;1.10;;
37777;SDS011;23615;51.506;7.678;2023-02-28T01:48:42;1.83;;;0.82;;
37777;SDS011;23615;51.506;7.678;2023-02-28T01:51:14;0.73;;;0.70;;
37777;SDS011;23615;51.506;7.678;2023-02-28T01:53:47;1.40;;;1.10;;
37777;SDS011;23615;51.506;7.678;2023-02-28T01:56:17;1.10;;;1.00;;
37777;SDS011;23615;51.506;7.678;2023-02-28T01:58:48;1.20;;;1.10;;
37777;SDS011;23615;51.506;7.678;2023-02-28T02:01:15;0.70;;;0.60;;
37777;SDS011;23615;51.506;7.678;2023-02-28T02:03:46;1.42;;;0.98;;
37777;SDS011;23615;51.506;7.678;2023-02-28T02:06:17;0.98;;;0.70;;
37777;SDS011;23615;51.506;7.678;2023-02-28T02:08:42;0.77;;;0.77;;
37777;SDS011;23615;51.506;7.678;2023-02-28T02:11:08;1.07;;;0.80;;
37777;SDS011;23615;51.506;7.678;2023-02-28T02:27:45;0.85;;;0.80;;
37777;SDS011;23615;51.506;7.678;2023-02-28T02:30:40;1.90;;;1.00;;
37777;SDS011;23615;51.506;7.678;2023-02-28T02:36:00;1.15;;;0.90;;
37777;SDS011;23615;51.506;7.678;2023-02-28T02:39:00;2.00;;;0.90;;
37777;SDS011;23615;51.506;7.678;2023-02-28T02:41:35;1.20;;;0.80;;
37777;SDS011;23615;51.506;7.678;2023-02-28T02:44:05;1.47;;;0.90;;
37777;SDS011;23615;51.506;7.678;2023-02-28T02:46:37;1.55;;;0.77;;
37777;SDS011;23615;51.506;7.678;2023-02-28T02:49:09;1.50;;;1.00;;
37777;SDS011;23615;51.506;7.678;2023-02-28T02:51:40;1.40;;;0.82;;
37777;SDS011;23615;51.506;7.678;2023-02-28T02:54:11;1.13;;;0.82;;
37777;SDS011;23615;51.506;7.678;2023-02-28T02:56:41;2.08;;;1.00;;
37777;SDS011;23615;51.506;7.678;2023-02-28T02:59:09;1.25;;;1.10;;
37777;SDS011;23615;51.506;7.678;2023-02-28T03:01:37;1.40;;;0.77;;
37777;SDS011;23615;51.506;7.678;2023-02-28T03:04:07;1.10;;;1.00;;
37777;SDS011;23615;51.506;7.678;2023-02-28T03:06:36;1.15;;;0.85;;
37777;SDS011;23615;51.506;7.678;2023-02-28T03:09:01;1.17;;;1.07;;
37777;SDS011;23615;51.506;7.678;2023-02-28T03:11:27;1.35;;;0.82;;
37777;SDS011;23615;51.506;7.678;2023-02-28T03:14:15;1.93;;;1.07;;
37777;SDS011;23615;51.506;7.678;2023-02-28T03:19:28;1.50;;;1.00;;
37777;SDS011;23615;51.506;7.678;2023-02-28T03:25:05;0.70;;;0.70;;
37777;SDS011;23615;51.506;7.678;2023-02-28T03:30:41;1.88;;;1.20;;
37777;SDS011;23615;51.506;7.678;2023-02-28T03:33:20;1.50;;;1.20;;
37777;SDS011;23615;51.506;7.678;2023-02-28T03:35:50;1.73;;;0.90;;
37777;SDS011;23615;51.506;7.678;2023-02-28T03:38:25;2.03;;;1.13;;
37777;SDS011;23615;51.506;7.678;2023-02-28T03:41:05;0.80;;;0.80;;
37777;SDS011;23615;51.506;7.678;2023-02-28T03:43:35;0.90;;;0.80;;
37777;SDS011;23615;51.506;7.678;2023-02-28T03:46:08;0.77;;;0.70;;
37777;SDS011;23615;51.506;7.678;2023-02-28T03:48:42;0.80;;;0.60;;
37777;SDS011;23615;51.506;7.678;2023-02-28T03:51:11;0.83;;;0.53;;
37777;SDS011;23615;51.506;7.678;2023-02-28T03:53:47;0.90;;;0.63;;
37777;SDS011;23615;51.506;7.678;2023-02-28T03:56:19;1.33;;;0.68;;
37777;SDS011;23615;51.506;7.678;2023-02-28T04:01:39;0.70;;;0.60;;
37777;SDS011;23615;51.506;7.678;2023-02-28T04:04:07;1.02;;;0.75;;
37777;SDS011;23615;51.506;7.678;2023-02-28T04:06:34;1.00;;;0.80;;
37777;SDS011;23615;51.506;7.678;2023-02-28T04:09:00;0.65;;;0.50;;
37777;SDS011;23615;51.506;7.678;2023-02-28T04:11:33;0.60;;;0.60;;
37777;SDS011;23615;51.506;7.678;2023-02-28T04:14:00;0.80;;;0.40;;
37777;SDS011;23615;51.506;7.678;2023-02-28T04:16:27;0.77;;;0.50;;
37777;SDS011;23615;51.506;7.678;2023-02-28T04:18:52;0.88;;;0.80;;
37777;SDS011;23615;51.506;7.678;2023-02-28T04:21:18;1.40;;;0.40;;
37777;SDS011;23615;51.506;7.678;2023-02-28T04:23:45;0.98;;;0.70;;
37777;SDS011;23615;51.506;7.678;2023-02-28T04:26:11;1.35;;;0.50;;
37777;SDS011;23615;51.506;7.678;2023-02-28T04:28:36;1.85;;;0.68;;
37777;SDS011;23615;51.506;7.678;2023-02-28T04:31:03;0.65;;;0.65;;
37777;SDS011;23615;51.506;7.678;2023-02-28T04:33:29;1.70;;;0.82;;
37777;SDS011;23615;51.506;7.678;2023-02-28T04:36:03;0.85;;;0.80;;
37777;SDS011;23615;51.506;7.678;2023-02-28T04:38:34;0.90;;;0.73;;
37777;SDS011;23615;51.506;7.678;2023-02-28T04:41:02;0.70;;;0.70;;
37777;SDS011;23615;51.506;7.678;2023-02-28T04:43:27;0.90;;;0.70;;
37777;SDS011;23615;51.506;7.678;2023-02-28T04:45:53;1.03;;;0.77;;
37777;SDS011;23615;51.506;7.678;2023-02-28T04:48:21;0.63;;;0.60;;
37777;SDS011;23615;51.506;7.678;2023-02-28T04:50:52;0.80;;;0.50;;
37777;SDS011;23615;51.506;7.678;2023-02-28T04:53:17;0.57;;;0.57;;
37777;SDS011;23615;51.506;7.678;2023-02-28T04:55:43;0.70;;;0.70;;
37777;SDS011;23615;51.506;7.678;2023-02-28T04:58:09;1.10;;;0.70;;
37777;SDS011;23615;51.506;7.678;2023-02-28T05:00:35;0.80;;;0.80;;
37777;SDS011;23615;51.506;7.678;2023-02-28T05:03:00;1.00;;;0.80;;
37777;SDS011;23615;51.506;7.678;2023-02-28T05:05:25;0.93;;;0.70;;
37777;SDS011;23615;51.506;7.678;2023-02-28T05:07:50;0.70;;;0.70;;
37777;SDS011;23615;51.506;7.678;2023-02-28T05:10:16;0.70;;;0.70;;
37777;SDS011;23615;51.506;7.678;2023-02-28T05:12:41;0.70;;;0.70;;
37777;SDS011;23615;51.506;7.678;2023-02-28T05:15:08;0.67;;;0.67;;
37777;SDS011;23615;51.506;7.678;2023-02-28T05:17:37;0.93;;;0.65;;
37777;SDS011;23615;51.506;7.678;2023-02-28T05:20:03;1.10;;;1.00;;
37777;SDS011;23615;51.506;7.678;2023-02-28T05:22:29;1.48;;;1.30;;
37777;SDS011;23615;51.506;7.678;2023-02-28T05:24:55;1.90;;;1.30;;
37777;SDS011;23615;51.506;7.678;2023-02-28T05:27:20;0.93;;;0.80;;
37777;SDS011;23615;51.506;7.678;2023-02-28T05:29:45;1.20;;;1.10;;
37777;SDS011;23615;51.506;7.678;2023-02-28T05:32:11;1.70;;;0.83;;
37777;SDS011;23615;51.506;7.678;2023-02-28T05:34:40;1.40;;;0.80;;
37777;SDS011;23615;51.506;7.678;2023-02-28T05:37:06;0.80;;;0.80;;
37777;SDS011;23615;51.506;7.678;2023-02-28T05:39:36;1.33;;;0.90;;
37777;SDS011;23615;51.506;7.678;2023-02-28T05:42:01;1.07;;;0.90;;
37777;SDS011;23615;51.506;7.678;2023-02-28T05:44:27;0.90;;;0.80;;
37777;SDS011;23615;51.506;7.678;2023-02-28T05:46:52;1.83;;;0.83;;
37777;SDS011;23615;51.506;7.678;2023-02-28T05:49:17;1.03;;;0.83;;
37777;SDS011;23615;51.506;7.678;2023-02-28T05:51:43;1.30;;;0.95;;
37777;SDS011;23615;51.506;7.678;2023-02-28T05:54:08;1.30;;;0.82;;
37777;SDS011;23615;51.506;7.678;2023-02-28T05:56:33;1.00;;;0.90;;
37777;SDS011;23615;51.506;7.678;2023-02-28T05:59:04;0.70;;;0.70;;
37777;SDS011;23615;51.506;7.678;2023-02-28T06:01:39;1.27;;;0.80;;
37777;SDS011;23615;51.506;7.678;2023-02-28T06:04:07;1.30;;;0.80;;
37777;SDS011;23615;51.506;7.678;2023-02-28T06:06:34;0.98;;;0.70;;
37777;SDS011;23615;51.506;7.678;2023-02-28T06:09:00;1.17;;;0.80;;
37777;SDS011;23615;51.506;7.678;2023-02-28T06:11:26;1.47;;;0.97;;
37777;SDS011;23615;51.506;7.678;2023-02-28T06:13:58;0.98;;;0.88;;
37777;SDS011;23615;51.506;7.678;2023-02-28T06:16:25;0.82;;;0.80;;
37777;SDS011;23615;51.506;7.678;2023-02-28T06:18:51;0.70;;;0.70;;
37777;SDS011;23615;51.506;7.678;2023-02-28T06:21:17;1.33;;;1.23;;
37777;SDS011;23615;51.506;7.678;2023-02-28T06:23:43;1.00;;;0.73;;
37777;SDS011;23615;51.506;7.678;2023-02-28T06:26:09;1.33;;;0.87;;
37777;SDS011;23615;51.506;7.678;2023-02-28T06:28:34;1.70;;;1.00;;
37777;SDS011;23615;51.506;7.678;2023-02-28T06:31:04;2.10;;;1.17;;
37777;SDS011;23615;51.506;7.678;2023-02-28T06:33:34;3.15;;;1.27;;
37777;SDS011;23615;51.506;7.678;2023-02-28T06:35:59;1.10;;;1.00;;
37777;SDS011;23615;51.506;7.678;2023-02-28T06:38:25;1.70;;;1.00;;
37777;SDS011;23615;51.506;7.678;2023-02-28T06:40:53;1.00;;;0.85;;
37777;SDS011;23615;51.506;7.678;2023-02-28T06:43:20;1.20;;;0.80;;
37777;SDS011;23615;51.506;7.678;2023-02-28T06:45:46;0.98;;;0.88;;
37777;SDS011;23615;51.506;7.678;2023-02-28T06:48:11;0.80;;;0.80;;
37777;SDS011;23615;51.506;7.678;2023-02-28T06:50:37;1.80;;;0.77;;
37777;SDS011;23615;51.506;7.678;2023-02-28T06:53:03;0.70;;;0.70;;
37777;SDS011;23615;51.506;7.678;2023-02-28T06:55:28;0.90;;;0.67;;
37777;SDS011;23615;51.506;7.678;2023-02-28T06:57:54;0.65;;;0.50;;
37777;SDS011;23615;51.506;7.678;2023-02-28T07:00:20;1.10;;;0.80;;
37777;SDS011;23615;51.506;7.678;2023-02-28T07:02:46;1.45;;;0.90;;
37777;SDS011;23615;51.506;7.678;2023-02-28T07:05:15;0.93;;;0.80;;
37777;SDS011;23615;51.506;7.678;2023-02-28T07:07:49;1.08;;;0.75;;
37777;SDS011;23615;51.506;7.678;2023-02-28T07:10:18;0.80;;;0.80;;
37777;SDS011;23615;51.506;7.678;2023-02-28T07:12:44;0.70;;;0.63;;
37777;SDS011;23615;51.506;7.678;2023-02-28T07:15:09;1.30;;;0.90;;
37777;SDS011;23615;51.506;7.678;2023-02-28T07:17:35;1.07;;;0.80;;
37777;SDS011;23615;51.506;7.678;2023-02-28T07:20:00;1.10;;;0.70;;
37777;SDS011;23615;51.506;7.678;2023-02-28T07:22:26;0.85;;;0.70;;
37777;SDS011;23615;51.506;7.678;2023-02-28T07:24:51;1.60;;;0.70;;
37777;SDS011;23615;51.506;7.678;2023-02-28T07:27:17;1.23;;;0.90;;
37777;SDS011;23615;51.506;7.678;2023-02-28T07:29:49;1.38;;;0.77;;
37777;SDS011;23615;51.506;7.678;2023-02-28T07:32:14;0.85;;;0.77;;
37777;SDS011;23615;51.506;7.678;2023-02-28T07:34:43;0.90;;;0.80;;
37777;SDS011;23615;51.506;7.678;2023-02-28T07:37:08;1.52;;;0.70;;
37777;SDS011;23615;51.506;7.678;2023-02-28T07:39:34;1.10;;;0.87;;
37777;SDS011;23615;51.506;7.678;2023-02-28T07:41:59;1.80;;;0.97;;
37777;SDS011;23615;51.506;7.678;2023-02-28T07:44:25;1.97;;;0.80;;
37777;SDS011;23615;51.506;7.678;2023-02-28T07:46:51;1.38;;;0.90;;
37777;SDS011;23615;51.506;7.678;2023-02-28T07:49:17;1.15;;;0.73;;
37777;SDS011;23615;51.506;7.678;2023-02-28T07:51:46;0.80;;;0.80;;
37777;SDS011;23615;51.506;7.678;2023-02-28T07:54:11;0.68;;;0.68;;
37777;SDS011;23615;51.506;7.678;2023-02-28T07:56:36;0.80;;;0.57;;
37777;SDS011;23615;51.506;7.678;2023-02-28T07:59:02;0.57;;;0.57;;
37777;SDS011;23615;51.506;7.678;2023-02-28T08:01:27;0.90;;;0.60;;
37777;SDS011;23615;51.506;7.678;2023-02-28T08:03:53;0.45;;;0.43;;
37777;SDS011;23615;51.506;7.678;2023-02-28T08:06:21;0.63;;;0.47;;
37777;SDS011;23615;51.506;7.678;2023-02-28T08:08:47;0.70;;;0.60;;
37777;SDS011;23615;51.506;7.678;2023-02-28T08:11:13;1.30;;;0.80;;
37777;SDS011;23615;51.506;7.678;2023-02-28T08:13:39;1.50;;;0.70;;
37777;SDS011;23615;51.506;7.678;2023-02-28T08:16:07;1.20;;;0.65;;
37777;SDS011;23615;51.506;7.678;2023-02-28T08:18:32;1.75;;;0.70;;
37777;SDS011;23615;51.506;7.678;2023-02-28T08:20:58;1.30;;;0.50;;
37777;SDS011;23615;51.506;7.678;2023-02-28T08:23:24;0.95;;;0.68;;
37777;SDS011;23615;51.506;7.678;2023-02-28T08:25:53;5.87;;;2.00;;
37777;SDS011;23615;51.506;7.678;2023-02-28T08:28:21;1.02;;;0.70;;
37777;SDS011;23615;51.506;7.678;2023-02-28T08:30:47;1.45;;;0.85;;
37777;SDS011;23615;51.506;7.678;2023-02-28T08:33:13;0.80;;;0.60;;
37777;SDS011;23615;51.506;7.678;2023-02-28T08:35:39;1.17;;;0.57;;
37777;SDS011;23615;51.506;7.678;2023-02-28T08:38:04;1.40;;;0.70;;
37777;SDS011;23615;51.506;7.678;2023-02-28T08:40:29;1.17;;;0.90;;
37777;SDS011;23615;51.506;7.678;2023-02-28T08:42:55;2.10;;;1.10;;
37777;SDS011;23615;51.506;7.678;2023-02-28T08:45:20;1.87;;;0.87;;
37777;SDS011;23615;51.506;7.678;2023-02-28T08:47:45;1.30;;;0.73;;
37777;SDS011;23615;51.506;7.678;2023-02-28T08:50:10;1.30;;;0.77;;
37777;SDS011;23615;51.506;7.678;2023-02-28T08:52:36;1.07;;;1.00;;
37777;SDS011;23615;51.506;7.678;2023-02-28T08:55:03;1.67;;;0.73;;
37777;SDS011;23615;51.506;7.678;2023-02-28T08:57:29;1.60;;;1.10;;
37777;SDS011;23615;51.506;7.678;2023-02-28T09:00:02;1.00;;;0.90;;
37777;SDS011;23615;51.506;7.678;2023-02-28T09:05:10;0.50;;;0.50;;
37777;SDS011;23615;51.506;7.678;2023-02-28T09:07:35;0.93;;;0.60;;
37777;SDS011;23615;51.506;7.678;2023-02-28T09:10:01;0.87;;;0.80;;
37777;SDS011;23615;51.506;7.678;2023-02-28T09:12:27;1.77;;;0.97;;
37777;SDS011;23615;51.506;7.678;2023-02-28T09:14:56;1.50;;;1.30;;
37777;SDS011;23615;51.506;7.678;2023-02-28T09:17:22;0.97;;;0.77;;
37777;SDS011;23615;51.506;7.678;2023-02-28T09:19:47;2.72;;;1.10;;
37777;SDS011;23615;51.506;7.678;2023-02-28T09:22:14;3.10;;;1.40;;
37777;SDS011;23615;51.506;7.678;2023-02-28T09:24:39;2.03;;;1.00;;
37777;SDS011;23615;51.506;7.678;2023-02-28T09:27:04;2.43;;;1.13;;
37777;SDS011;23615;51.506;7.678;2023-02-28T09:29:31;4.03;;;1.40;;
37777;SDS011;23615;51.506;7.678;2023-02-28T09:31:57;3.53;;;1.42;;
37777;SDS011;23615;51.506;7.678;2023-02-28T09:34:25;2.17;;;0.90;;
37777;SDS011;23615;51.506;7.678;2023-02-28T09:36:51;2.00;;;1.00;;
37777;SDS011;23615;51.506;7.678;2023-02-28T09:39:19;1.40;;;1.00;;
37777;SDS011;23615;51.506;7.678;2023-02-28T09:41:47;1.20;;;0.95;;
37777;SDS011;23615;51.506;7.678;2023-02-28T09:47:27;3.13;;;1.98;;
37777;SDS011;23615;51.506;7.678;2023-02-28T09:49:58;3.15;;;2.28;;
37777;SDS011;23615;51.506;7.678;2023-02-28T09:52:32;2.03;;;1.77;;
37777;SDS011;23615;51.506;7.678;2023-02-28T09:55:04;2.87;;;2.10;;
37777;SDS011;23615;51.506;7.678;2023-02-28T09:57:58;2.97;;;1.92;;
37777;SDS011;23615;51.506;7.678;2023-02-28T10:00:30;2.47;;;1.55;;
37777;SDS011;23615;51.506;7.678;2023-02-28T10:08:34;1.50;;;1.30;;
37777;SDS011;23615;51.506;7.678;2023-02-28T10:11:06;1.65;;;1.10;;
37777;SDS011;23615;51.506;7.678;2023-02-28T10:13:56;1.27;;;0.80;;
37777;SDS011;23615;51.506;7.678;2023-02-28T10:24:45;1.10;;;1.00;;
37777;SDS011;23615;51.506;7.678;2023-02-28T10:27:14;1.40;;;0.70;;
37777;SDS011;23615;51.506;7.678;2023-02-28T10:29:51;1.83;;;0.65;;
37777;SDS011;23615;51.506;7.678;2023-02-28T10:32:19;0.88;;;0.80;;
37777;SDS011;23615;51.506;7.678;2023-02-28T10:34:57;1.35;;;0.60;;
37777;SDS011;23615;51.506;7.678;2023-02-28T10:37:26;2.05;;;0.80;;
37777;SDS011;23615;51.506;7.678;2023-02-28T10:39:52;0.80;;;0.80;;
37777;SDS011;23615;51.506;7.678;2023-02-28T10:42:22;1.75;;;0.70;;
37777;SDS011;23615;51.506;7.678;2023-02-28T10:45:04;1.25;;;0.73;;
37777;SDS011;23615;51.506;7.678;2023-02-28T10:47:30;1.70;;;0.73;;
37777;SDS011;23615;51.506;7.678;2023-02-28T10:49:57;2.05;;;0.77;;
37777;SDS011;23615;51.506;7.678;2023-02-28T10:52:41;1.53;;;1.00;;
37777;SDS011;23615;51.506;7.678;2023-02-28T10:55:14;0.73;;;0.73;;
37777;SDS011;23615;51.506;7.678;2023-02-28T10:57:47;0.95;;;0.70;;
37777;SDS011;23615;51.506;7.678;2023-02-28T11:00:24;2.05;;;0.88;;
37777;SDS011;23615;51.506;7.678;2023-02-28T11:02:56;2.78;;;1.10;;
37777;SDS011;23615;51.506;7.678;2023-02-28T11:07:59;1.33;;;1.00;;
37777;SDS011;23615;51.506;7.678;2023-02-28T11:10:31;1.38;;;0.88;;
37777;SDS011;23615;51.506;7.678;2023-02-28T11:12:59;1.50;;;0.90;;
37777;SDS011;23615;51.506;7.678;2023-02-28T11:15:27;0.73;;;0.60;;
37777;SDS011;23615;51.506;7.678;2023-02-28T11:17:55;0.95;;;0.70;;
37777;SDS011;23615;51.506;7.678;2023-02-28T11:20:39;2.40;;;0.90;;
37777;SDS011;23615;51.506;7.678;2023-02-28T11:23:05;1.50;;;0.80;;
37777;SDS011;23615;51.506;7.678;2023-02-28T11:25:38;1.65;;;0.80;;
37777;SDS011;23615;51.506;7.678;2023-02-28T11:28:23;1.80;;;0.80;;
37777;SDS011;23615;51.506;7.678;2023-02-28T11:36:25;0.80;;;0.60;;
37777;SDS011;23615;51.506;7.678;2023-02-28T11:39:00;1.00;;;0.90;;
37777;SDS011;23615;51.506;7.678;2023-02-28T11:47:28;1.33;;;1.00;;
37777;SDS011;23615;51.506;7.678;2023-02-28T11:55:53;1.00;;;0.70;;
37777;SDS011;23615;51.506;7.678;2023-02-28T11:58:32;1.42;;;0.82;;
37777;SDS011;23615;51.506;7.678;2023-02-28T12:01:28;0.85;;;0.73;;
37777;SDS011;23615;51.506;7.678;2023-02-28T12:04:24;1.23;;;1.00;;
37777;SDS011;23615;51.506;7.678;2023-02-28T12:06:57;1.73;;;0.82;;
37777;SDS011;23615;51.506;7.678;2023-02-28T12:09:40;1.38;;;0.80;;
37777;SDS011;23615;51.506;7.678;2023-02-28T12:15:22;2.17;;;1.20;;
37777;SDS011;23615;51.506;7.678;2023-02-28T12:24:15;1.23;;;1.17;;
37777;SDS011;23615;51.506;7.678;2023-02-28T12:26:45;1.20;;;1.10;;
37777;SDS011;23615;51.506;7.678;2023-02-28T12:29:21;2.38;;;1.20;;
37777;SDS011;23615;51.506;7.678;2023-02-28T12:31:55;2.30;;;1.38;;
37777;SDS011;23615;51.506;7.678;2023-02-28T12:35:31;1.50;;;1.20;;
37777;SDS011;23615;51.506;7.678;2023-02-28T12:37:34;1.85;;;0.90;;
37777;SDS011;23615;51.506;7.678;2023-02-28T12:40:05;1.17;;;1.05;;
37777;SDS011;23615;51.506;7.678;2023-02-28T12:42:39;0.93;;;0.90;;
37777;SDS011;23615;51.506;7.678;2023-02-28T12:45:09;2.53;;;1.33;;
37777;SDS011;23615;51.506;7.678;2023-02-28T12:47:42;1.20;;;1.10;;
37777;SDS011;23615;51.506;7.678;2023-02-28T12:50:11;1.30;;;1.20;;
37777;SDS011;23615;51.506;7.678;2023-02-28T12:52:40;2.05;;;1.40;;
37777;SDS011;23615;51.506;7.678;2023-02-28T12:57:57;1.13;;;1.05;;
37777;SDS011;23615;51.506;7.678;2023-02-28T13:00:36;1.60;;;1.10;;
37777;SDS011;23615;51.506;7.678;2023-02-28T13:06:09;1.77;;;1.30;;
37777;SDS011;23615;51.506;7.678;2023-02-28T13:08:47;2.33;;;1.30;;
37777;SDS011;23615;51.506;7.678;2023-02-28T13:13:56;1.42;;;0.98;;
37777;SDS011;23615;51.506;7.678;2023-02-28T13:16:22;0.82;;;0.82;;
37777;SDS011;23615;51.506;7.678;2023-02-28T13:18:48;1.40;;;1.20;;
37777;SDS011;23615;51.506;7.678;2023-02-28T13:21:29;1.37;;;1.03;;
37777;SDS011;23615;51.506;7.678;2023-02-28T13:23:57;1.48;;;1.27;;
37777;SDS011;23615;51.506;7.678;2023-02-28T13:29:01;2.47;;;1.48;;
37777;SDS011;23615;51.506;7.678;2023-02-28T13:47:27;1.20;;;1.00;;
37777;SDS011;23615;51.506;7.678;2023-02-28T13:50:13;1.05;;;0.85;;
37777;SDS011;23615;51.506;7.678;2023-02-28T13:52:53;1.52;;;1.05;;
37777;SDS011;23615;51.506;7.678;2023-02-28T13:55:28;1.30;;;1.20;;
37777;SDS011;23615;51.506;7.678;2023-02-28T13:58:25;6.03;;;2.03;;
37777;SDS011;23615;51.506;7.678;2023-02-28T14:01:23;1.27;;;1.13;;
37777;SDS011;23615;51.506;7.678;2023-02-28T14:06:57;1.55;;;1.45;;
37777;SDS011;23615;51.506;7.678;2023-02-28T14:09:25;1.57;;;1.40;;
37777;SDS011;23615;51.506;7.678;2023-02-28T14:15:02;2.00;;;1.80;;
37777;SDS011;23615;51.506;7.678;2023-02-28T14:17:30;1.77;;;1.33;;
37777;SDS011;23615;51.506;7.678;2023-02-28T14:19:56;3.65;;;1.77;;
37777;SDS011;23615;51.506;7.678;2023-02-28T14:25:08;1.13;;;1.02;;
37777;SDS011;23615;51.506;7.678;2023-02-28T14:27:44;1.38;;;1.25;;
37777;SDS011;23615;51.506;7.678;2023-02-28T14:33:14;2.35;;;1.35;;
37777;SDS011;23615;51.506;7.678;2023-02-28T14:35:46;1.70;;;1.23;;
37777;SDS011;23615;51.506;7.678;2023-02-28T14:38:27;1.50;;;1.38;;
37777;SDS011;23615;51.506;7.678;2023-02-28T14:40:56;1.30;;;1.10;;
37777;SDS011;23615;51.506;7.678;2023-02-28T14:43:24;1.55;;;1.13;;
37777;SDS011;23615;51.506;7.678;2023-02-28T14:45:52;1.42;;;1.10;;
37777;SDS011;23615;51.506;7.678;2023-02-28T14:48:20;1.40;;;0.90;;
37777;SDS011;23615;51.506;7.678;2023-02-28T14:50:57;1.80;;;1.48;;
37777;SDS011;23615;51.506;7.678;2023-02-28T14:53:28;1.80;;;1.30;;
37777;SDS011;23615;51.506;7.678;2023-02-28T14:56:00;1.55;;;1.40;;
37777;SDS011;23615;51.506;7.678;2023-02-28T14:58:32;2.17;;;1.50;;
37777;SDS011;23615;51.506;7.678;2023-02-28T15:01:02;1.42;;;1.20;;
37777;SDS011;23615;51.506;7.678;2023-02-28T15:05:58;1.67;;;1.40;;
37777;SDS011;23615;51.506;7.678;2023-02-28T15:08:25;1.55;;;1.45;;
37777;SDS011;23615;51.506;7.678;2023-02-28T15:11:00;1.83;;;1.23;;
37777;SDS011;23615;51.506;7.678;2023-02-28T15:13:36;2.85;;;1.30;;
37777;SDS011;23615;51.506;7.678;2023-02-28T15:16:02;2.47;;;1.30;;
37777;SDS011;23615;51.506;7.678;2023-02-28T15:18:36;2.50;;;1.23;;
37777;SDS011;23615;51.506;7.678;2023-02-28T15:21:21;1.60;;;1.33;;
37777;SDS011;23615;51.506;7.678;2023-02-28T15:24:34;1.57;;;1.13;;
37777;SDS011;23615;51.506;7.678;2023-02-28T15:26:49;2.07;;;1.90;;
37777;SDS011;23615;51.506;7.678;2023-02-28T15:29:21;1.80;;;1.70;;
37777;SDS011;23615;51.506;7.678;2023-02-28T15:31:51;2.17;;;1.52;;
37777;SDS011;23615;51.506;7.678;2023-02-28T15:34:24;1.55;;;1.45;;
37777;SDS011;23615;51.506;7.678;2023-02-28T15:36:51;2.00;;;1.77;;
37777;SDS011;23615;51.506;7.678;2023-02-28T15:39:21;2.55;;;1.75;;
37777;SDS011;23615;51.506;7.678;2023-02-28T15:41:48;1.87;;;1.30;;
37777;SDS011;23615;51.506;7.678;2023-02-28T15:44:15;1.40;;;1.10;;
37777;SDS011;23615;51.506;7.678;2023-02-28T15:46:43;1.77;;;1.27;;
37777;SDS011;23615;51.506;7.678;2023-02-28T15:49:19;2.35;;;1.50;;
37777;SDS011;23615;51.506;7.678;2023-02-28T15:51:46;1.35;;;1.08;;
37777;SDS011;23615;51.506;7.678;2023-02-28T15:54:18;1.20;;;1.10;;
37777;SDS011;23615;51.506;7.678;2023-02-28T15:56:49;1.00;;;0.90;;
37777;SDS011;23615;51.506;7.678;2023-02-28T15:59:27;2.80;;;1.23;;
37777;SDS011;23615;51.506;7.678;2023-02-28T16:02:14;1.43;;;0.90;;
37777;SDS011;23615;51.506;7.678;2023-02-28T16:05:00;1.10;;;1.00;;
37777;SDS011;23615;51.506;7.678;2023-02-28T16:07:41;1.27;;;1.02;;
37777;SDS011;23615;51.506;7.678;2023-02-28T16:10:09;1.80;;;1.23;;
37777;SDS011;23615;51.506;7.678;2023-02-28T16:12:36;0.98;;;0.80;;
37777;SDS011;23615;51.506;7.678;2023-02-28T16:15:06;2.20;;;1.00;;
37777;SDS011;23615;51.506;7.678;2023-02-28T16:17:35;1.30;;;1.20;;
37777;SDS011;23615;51.506;7.678;2023-02-28T16:20:22;1.40;;;0.93;;
37777;SDS011;23615;51.506;7.678;2023-02-28T16:22:49;1.42;;;1.02;;
37777;SDS011;23615;51.506;7.678;2023-02-28T16:25:16;1.97;;;1.10;;
37777;SDS011;23615;51.506;7.678;2023-02-28T16:27:45;1.23;;;1.07;;
37777;SDS011;23615;51.506;7.678;2023-02-28T16:30:19;1.60;;;1.10;;
37777;SDS011;23615;51.506;7.678;2023-02-28T16:32:47;1.38;;;1.05;;
37777;SDS011;23615;51.506;7.678;2023-02-28T16:35:14;0.93;;;0.85;;
37777;SDS011;23615;51.506;7.678;2023-02-28T16:37:40;1.90;;;1.40;;
37777;SDS011;23615;51.506;7.678;2023-02-28T16:40:06;2.00;;;1.45;;
37777;SDS011;23615;51.506;7.678;2023-02-28T16:42:34;1.70;;;0.85;;
37777;SDS011;23615;51.506;7.678;2023-02-28T16:45:02;1.58;;;1.17;;
37777;SDS011;23615;51.506;7.678;2023-02-28T16:47:27;1.57;;;1.20;;
37777;SDS011;23615;51.506;7.678;2023-02-28T16:49:53;1.00;;;0.83;;
37777;SDS011;23615;51.506;7.678;2023-02-28T16:52:18;1.30;;;1.00;;
37777;SDS011;23615;51.506;7.678;2023-02-28T16:54:43;1.00;;;0.73;;
37777;SDS011;23615;51.506;7.678;2023-02-28T16:57:20;1.00;;;0.70;;
37777;SDS011;23615;51.506;7.678;2023-02-28T16:59:48;1.17;;;0.70;;
37777;SDS011;23615;51.506;7.678;2023-02-28T17:02:15;1.60;;;0.80;;
37777;SDS011;23615;51.506;7.678;2023-02-28T17:04:44;0.98;;;0.80;;